Tropical Cyclones
[Index]
Main Index Home Page Stock Weather Photos Extreme Storms Discussion Storm News and Storm Chasing Reports Tropical Cyclones / Hurricanes / Typhoons Weather Data and Links Wild Fires / Bushfires Weather Observation Techniques Weather Picture Catalogue Tornado Pictures and Reports Stock Video Footage and DVDs for sale
Season 1966-1967 Tropical Cyclone CLARA-ELISA Track Map
Season 1966-1967 Summaries: [BoM-AU] [JTWC-AU] [JTWC-SIO] [JTWC-SPAC] [JTWC-SH]
<<- Previous TC | JTWC 1966-1967 Season | Next TC ->>

click for intensity scale information  Lat/long Grid: Show Hide

 Date Labels: Show Hide

Joint Typhoon Warning Centre Cyclone Data

Name: CLARA-ELISA
Number: 621 / 6706

19 Dec 1966 18:00 UTC to 30 Dec 1966 12:00 UTC

    date/time    lat    long     hPa   cat  kts
1966-12-19 18   13.0    89.0                  20          
1966-12-20 00   13.0    89.0                  20          
1966-12-20 06   13.2    88.8                  20          
1966-12-20 12   13.5    88.6                  15          
1966-12-20 18   13.8    88.3                  10          
1966-12-21 00   14.0    88.0                  10          
1966-12-21 06   14.2    87.5                  10          
1966-12-21 12   14.4    87.0                  15          
1966-12-21 18   14.7    86.5                  20          
1966-12-22 00   15.0    86.1                  25          
1966-12-22 06   15.3    85.6                  30          
1966-12-22 12   15.5    85.1                  35          
1966-12-22 18   15.8    84.5            1     40          
1966-12-23 00   16.0    84.0                  30          
1966-12-23 06   16.2    83.2                  25          
1966-12-23 12   16.4    82.2                  25          
1966-12-23 18   16.7    81.2                  25          
1966-12-24 00   16.9    80.2                  25          
1966-12-24 06   17.2    79.2                  25          
1966-12-24 12   17.5    78.2                  25          
1966-12-24 18   17.8    77.2                  25          
1966-12-25 00   18.0    76.2                  25          
1966-12-25 06   18.0    75.8                  25          
1966-12-25 12   18.0    75.6                  25          
1966-12-25 18   18.0    75.3                  25          
1966-12-26 00   18.0    75.1                  25          
1966-12-26 06   18.0    74.8                  25          
1966-12-26 12   18.0    74.6                  20          
1966-12-26 18   18.0    74.3                  15          
1966-12-27 00   18.0    74.0                  20          
1966-12-27 06   18.2    73.4                  20          
1966-12-27 12   18.4    72.5                  15          
1966-12-27 18   18.7    71.8                  10          
1966-12-28 00   18.9    71.1                  10          
1966-12-28 06   19.2    70.3                  10          
1966-12-28 12   19.5    69.5                  15          
1966-12-28 18   19.8    68.7                  15          
1966-12-29 00   19.9    67.9                  15          
1966-12-29 06   19.8    67.1                  15          
1966-12-29 12   19.6    66.1                  10          
1966-12-29 18   19.3    65.0                  10          
1966-12-30 00   19.1    63.6                  15          
1966-12-30 06   19.0    62.5                              
1966-12-30 12   18.9    61.9                              
Winds are 1-min average.

Tropical cyclone tracks developed by Michael Bath using data from the Joint Typhoon Warning Centre Best Tracks and Google Maps.


[Australian Severe Weather index] [Copyright Notice] [Email Contacts] [Search This Site] [Privacy Policy]
Document: tropical_cyclone_clara-elisa.htm Updated: 18 September 2016